Time;durP1;ratioP1;P1;durP2;ratioP2;P2;SDS_P1;SDS_P2;PMS_P1;PMS_P2;Temp;Humidity;BMP_temperature;BMP_pressure;BME280_temperature;BME280_humidity;BME280_pressure;Samples;Min_cycle;Max_cycle;Signal;HPM_P1;HPM_P2
2023/03/21 07:38:33;;;;;;;1.60;1.50;;;11.40;99.90;14.10;101069.00;;;;5065724;28;20580;-71
2023/03/21 07:40:59;;;;;;;1.90;1.80;;;11.40;99.90;14.10;101056.00;;;;5046029;28;20248;-71
2023/03/21 07:43:25;;;;;;;2.70;2.17;;;11.40;99.90;13.90;101072.00;;;;5031937;28;20223;-71
2023/03/21 07:45:56;;;;;;;1.00;1.00;;;11.40;99.90;14.40;101073.00;;;;5049050;28;20188;-71
2023/03/21 07:48:22;;;;;;;1.80;1.70;;;11.50;99.90;14.40;101072.00;;;;5027937;28;20324;-71
2023/03/21 07:50:49;;;;;;;0.77;0.77;;;11.60;99.90;14.30;101068.00;;;;5049344;28;20262;-71
2023/03/21 07:53:15;;;;;;;1.83;1.73;;;11.50;99.90;14.10;101073.00;;;;5049092;28;20714;-71
2023/03/21 07:55:43;;;;;;;0.60;0.60;;;11.50;99.90;14.30;101053.00;;;;5050415;28;20182;-71
2023/03/21 07:58:10;;;;;;;3.53;2.07;;;11.50;99.90;14.10;101066.00;;;;5048764;28;20206;-69
2023/03/21 08:00:35;;;;;;;2.90;2.70;;;11.70;99.90;14.00;101064.00;;;;5048910;28;20602;-71
2023/03/21 08:03:03;;;;;;;0.90;0.90;;;11.50;99.90;14.30;101042.00;;;;5049938;28;20215;-70
2023/03/21 08:05:33;;;;;;;1.47;1.47;;;11.60;99.90;14.60;101068.00;;;;5051679;28;20185;-69
2023/03/21 08:08:00;;;;;;;0.80;0.80;;;11.70;99.90;14.60;101080.00;;;;5049302;28;20189;-69
2023/03/21 08:10:26;;;;;;;1.20;1.10;;;11.80;99.90;14.30;101065.00;;;;5065913;28;20531;-69
2023/03/21 08:12:53;;;;;;;0.80;0.80;;;11.80;99.90;15.10;101078.00;;;;5061995;28;20208;-69
2023/03/21 08:15:19;;;;;;;0.80;0.80;;;11.90;99.90;14.00;101080.00;;;;5044110;28;20181;-69
2023/03/21 08:17:45;;;;;;;1.63;1.53;;;11.80;99.90;14.70;101071.00;;;;5048679;28;20674;-69
2023/03/21 08:20:52;;;;;;;1.13;0.93;;;11.90;99.90;14.80;101069.00;;;;5048443;28;20210;-69
2023/03/21 08:23:18;;;;;;;0.50;0.50;;;12.00;99.90;14.10;101058.00;;;;5049335;28;20583;-69
2023/03/21 08:26:20;;;;;;;0.50;0.50;;;11.90;99.90;15.30;101065.00;;;;5049887;28;20186;-69
2023/03/21 08:31:52;;;;;;;0.87;0.87;;;12.10;99.90;15.60;101061.00;;;;5043762;28;20195;-69
2023/03/21 08:34:59;;;;;;;1.23;0.73;;;12.30;99.90;14.70;101063.00;;;;5047916;28;20232;-69
2023/03/21 08:37:39;;;;;;;1.73;1.63;;;12.30;99.90;15.40;101064.00;;;;5048481;28;20578;-69
2023/03/21 08:40:35;;;;;;;0.83;0.83;;;12.40;99.90;15.60;101058.00;;;;5028963;28;20190;-69
2023/03/21 08:43:24;;;;;;;0.97;0.97;;;12.40;99.90;15.90;101065.00;;;;5047354;28;20199;-67
2023/03/21 08:46:13;;;;;;;2.30;1.53;;;12.70;99.90;16.30;101056.00;;;;5048629;28;20645;-69
2023/03/21 08:48:49;;;;;;;1.47;0.93;;;13.00;99.90;15.30;101018.00;;;;5041519;28;20339;-69
2023/03/21 08:51:15;;;;;;;0.93;0.93;;;12.90;99.90;15.90;101064.00;;;;5035117;28;20277;-71
2023/03/21 08:53:44;;;;;;;11.33;1.93;;;13.20;99.90;15.20;101058.00;;;;5034223;28;20215;-71
2023/03/21 08:56:40;;;;;;;0.60;0.60;;;13.10;99.90;16.30;101064.00;;;;5034999;28;20192;-67
2023/03/21 08:59:08;;;;;;;1.10;1.00;;;13.20;99.90;16.10;101064.00;;;;5028391;28;20204;-70
2023/03/21 09:01:40;;;;;;;1.67;1.53;;;13.40;99.90;15.80;101054.00;;;;5018146;28;20188;-70
2023/03/21 09:04:24;;;;;;;3.80;0.90;;;13.40;99.90;15.90;101063.00;;;;5024873;28;20619;-69
2023/03/21 09:07:36;;;;;;;6.40;1.57;;;13.30;99.90;16.10;101066.00;;;;5027577;28;20221;-70
2023/03/21 09:10:23;;;;;;;1.20;1.13;;;13.30;99.90;15.90;101045.00;;;;5034716;28;20192;-70
2023/03/21 09:13:06;;;;;;;0.80;0.73;;;13.10;99.90;15.60;101057.00;;;;5034221;28;20188;-70
2023/03/21 09:15:35;;;;;;;0.90;0.90;;;13.10;99.90;16.50;101055.00;;;;5033986;28;20664;-70
2023/03/21 09:18:43;;;;;;;0.80;0.80;;;13.30;99.90;16.70;101066.00;;;;5035086;28;20238;-66
2023/03/21 09:21:23;;;;;;;0.30;0.30;;;13.50;99.90;16.30;101038.00;;;;5035246;28;20192;-66
2023/03/21 09:23:59;;;;;;;0.47;0.47;;;13.60;99.90;16.40;101034.00;;;;5034788;28;20169;-70
2023/03/21 09:26:28;;;;;;;1.33;1.27;;;13.50;99.90;16.60;101037.00;;;;5017732;28;20219;-69
2023/03/21 09:29:00;;;;;;;0.23;0.23;;;13.60;99.90;16.40;101059.00;;;;5033295;28;20647;-73
2023/03/21 09:31:49;;;;;;;0.40;0.40;;;13.50;99.90;15.90;101072.00;;;;5033978;28;20235;-69
2023/03/21 09:34:25;;;;;;;2.77;0.47;;;13.40;99.90;16.00;101074.00;;;;5033530;28;20184;-69
2023/03/21 09:36:56;;;;;;;1.03;1.03;;;13.20;99.90;16.10;101068.00;;;;5033612;28;20211;-69
2023/03/21 09:39:23;;;;;;;0.50;0.50;;;13.30;99.90;16.00;101053.00;;;;5032501;28;20185;-69
2023/03/21 09:42:16;;;;;;;0.30;0.30;;;13.30;99.90;16.70;101067.00;;;;5029310;28;20196;-67
2023/03/21 09:44:50;;;;;;;0.40;0.40;;;13.50;99.90;15.30;101047.00;;;;5034711;28;20208;-67
2023/03/21 09:47:23;;;;;;;0.80;0.80;;;13.10;99.90;15.70;101044.00;;;;5034782;28;20719;-67
2023/03/21 09:50:03;;;;;;;2.27;1.13;;;13.20;99.90;15.80;101058.00;;;;5033673;28;20598;-67
2023/03/21 09:52:51;;;;;;;0.43;0.43;;;13.10;99.90;15.80;101064.00;;;;5033366;28;20183;-69
2023/03/21 09:55:29;;;;;;;0.50;0.50;;;13.20;99.90;15.10;101043.00;;;;5033198;28;20195;-67
2023/03/21 09:58:33;;;;;;;1.70;1.37;;;13.00;99.90;15.30;101031.00;;;;5021959;28;20211;-67
2023/03/21 10:01:46;;;;;;;0.47;0.47;;;13.00;99.90;15.80;101070.00;;;;5029950;28;20213;-70
2023/03/21 10:04:23;;;;;;;0.60;0.60;;;12.90;99.90;16.60;101071.00;;;;5034222;28;20192;-67
2023/03/21 10:07:16;;;;;;;6.33;1.57;;;13.50;99.90;16.00;101050.00;;;;5032773;28;20197;-67
2023/03/21 10:09:47;;;;;;;0.47;0.47;;;13.80;99.90;16.10;101034.00;;;;5040484;28;20203;-67
2023/03/21 10:12:29;;;;;;;0.67;0.60;;;13.70;99.90;15.50;101036.00;;;;5046377;28;20203;-67
2023/03/21 10:14:58;;;;;;;0.50;0.50;;;13.50;99.90;15.50;101054.00;;;;5046628;28;20268;-67
2023/03/21 10:17:49;;;;;;;0.47;0.47;;;13.20;99.90;16.60;101070.00;;;;5032858;28;20210;-66
2023/03/21 10:20:24;;;;;;;0.50;0.50;;;13.70;99.90;16.70;101066.00;;;;5046644;28;20183;-67
2023/03/21 10:33:58;;;;;;;0.30;0.30;;;13.00;99.90;15.40;101065.00;;;;5084496;28;20955;-69
2023/03/21 10:36:39;;;;;;;4.83;1.73;;;13.20;99.90;16.60;101080.00;;;;5065521;28;20598;-68
2023/03/21 10:39:49;;;;;;;0.37;0.37;;;13.40;99.90;17.10;101094.00;;;;5048952;28;20248;-69
2023/03/21 10:42:26;;;;;;;0.20;0.20;;;14.00;99.90;16.90;101066.00;;;;5047875;28;20196;-69
2023/03/21 10:45:19;;;;;;;0.57;0.50;;;13.90;99.90;16.10;101072.00;;;;5064445;28;20622;-69
2023/03/21 10:48:25;;;;;;;3.23;2.13;;;13.80;99.90;14.90;101064.00;;;;5062070;28;20200;-69
2023/03/21 10:51:04;;;;;;;1.80;1.57;;;13.30;99.90;14.30;101052.00;;;;5064423;28;20197;-69
2023/03/21 10:54:14;;;;;;;0.20;0.20;;;12.90;99.90;16.50;101085.00;;;;5047691;28;20245;-69
2023/03/21 10:57:13;;;;;;;1.50;1.40;;;13.10;99.90;15.60;101082.00;;;;5043731;28;20210;-69
2023/03/21 11:00:08;;;;;;;0.27;0.27;;;13.20;99.90;15.80;101087.00;;;;5062121;28;20215;-69
2023/03/21 11:02:37;;;;;;;0.97;0.93;;;13.00;99.90;16.10;101095.00;;;;5049104;28;20705;-70
2023/03/21 11:05:27;;;;;;;1.70;1.27;;;13.30;99.90;14.70;101079.00;;;;5047344;28;20276;-70
2023/03/21 11:08:28;;;;;;;4.07;2.80;;;13.10;99.90;15.00;101063.00;;;;5049716;28;20229;-69
2023/03/21 11:11:03;;;;;;;0.20;0.20;;;12.80;99.90;16.20;101091.00;;;;5064785;28;20194;-70
2023/03/21 11:13:47;;;;;;;0.30;0.30;;;13.00;99.90;15.90;101077.00;;;;5063345;28;20280;-70
2023/03/21 11:16:40;;;;;;;0.20;0.20;;;13.40;99.90;16.90;101067.00;;;;5065360;28;20182;-70
2023/03/21 11:19:16;;;;;;;0.20;0.20;;;13.70;99.90;18.30;101067.00;;;;5048235;28;20207;-70
2023/03/21 11:21:54;;;;;;;0.10;0.10;;;14.60;99.90;17.80;101069.00;;;;5064209;28;20192;-71
2023/03/21 11:24:21;;;;;;;1.40;1.20;;;14.60;99.90;19.40;101082.00;;;;5047526;28;20196;-70
2023/03/21 11:26:51;;;;;;;0.30;0.30;;;15.70;99.90;20.10;101104.00;;;;5047681;28;20188;-70
2023/03/21 11:29:52;;;;;;;0.30;0.30;;;16.20;99.90;19.00;101141.00;;;;5064351;28;20222;-70
2023/03/21 11:32:32;;;;;;;0.40;0.40;;;16.90;99.90;19.50;101109.00;;;;5062502;28;20223;-70
2023/03/21 11:35:06;;;;;;;0.83;0.83;;;16.10;99.90;19.90;101114.00;;;;5061954;28;20199;-70
2023/03/21 11:38:24;;;;;;;1.70;1.60;;;16.60;99.90;20.60;101128.00;;;;5061283;28;20644;-70
2023/03/21 11:41:31;;;;;;;0.10;0.10;;;17.00;99.90;20.60;101116.00;;;;5063861;28;20177;-70
2023/03/21 11:44:01;;;;;;;1.10;1.10;;;17.40;99.90;19.40;101156.00;;;;5055711;28;20634;-70
2023/03/21 11:47:10;;;;;;;2.60;1.13;;;16.60;99.90;17.80;101185.00;;;;5033524;28;20207;-72
2023/03/21 11:50:16;;;;;;;0.60;0.60;;;16.40;99.90;18.40;101141.00;;;;5047161;28;20239;-69
2023/03/21 11:53:01;;;;;;;8.30;2.23;;;15.10;99.90;17.40;101137.00;;;;5029565;28;20201;-68
2023/03/21 11:55:35;;;;;;;0.23;0.23;;;15.10;99.90;17.60;101123.00;;;;5018192;28;20185;-70
2023/03/21 11:58:26;;;;;;;0.50;0.50;;;15.00;99.90;17.40;101072.00;;;;5034583;28;20256;-70
2023/03/21 12:01:31;;;;;;;1.50;1.13;;;14.90;99.90;16.60;101059.00;;;;5022464;28;20190;-70
2023/03/21 12:04:56;;;;;;;0.10;0.10;;;14.60;99.90;19.00;101086.00;;;;5032859;28;20788;-70
2023/03/21 12:08:12;;;;;;;0.23;0.23;;;15.40;99.90;19.70;101092.00;;;;5009341;28;20703;-71
2023/03/21 12:11:04;;;;;;;1.10;1.03;;;15.50;99.90;18.70;101116.00;;;;4995503;28;20201;-70
2023/03/21 12:13:59;;;;;;;0.43;0.43;;;16.00;99.90;18.50;101078.00;;;;5013184;28;20192;-70
2023/03/21 12:17:04;;;;;;;0.20;0.20;;;15.50;99.90;19.60;101103.00;;;;4996392;28;20201;-70
2023/03/21 12:19:52;;;;;;;0.23;0.23;;;15.90;99.90;18.30;101106.00;;;;4995976;28;20537;-70
2023/03/21 12:23:16;;;;;;;3.43;2.20;;;15.50;99.90;16.90;101065.00;;;;5012718;28;20207;-70
2023/03/21 12:26:18;;;;;;;2.80;2.23;;;14.80;99.90;17.00;101038.00;;;;5009586;28;20200;-70
2023/03/21 12:29:39;;;;;;;1.47;0.83;;;14.80;99.90;16.70;101032.00;;;;4978838;28;20205;-70
2023/03/21 12:32:34;;;;;;;1.00;0.97;;;14.50;99.90;17.80;101048.00;;;;5012701;28;20221;-70
2023/03/21 12:35:59;;;;;;;0.10;0.10;;;14.80;99.90;19.70;101023.00;;;;5006249;28;20331;-70
2023/03/21 12:39:05;;;;;;;1.27;1.17;;;15.60;99.90;16.90;101014.00;;;;4920372;29;20206;-70
2023/03/21 12:42:04;;;;;;;0.40;0.40;;;14.70;99.90;18.50;101017.00;;;;5003590;28;20204;-70
2023/03/21 12:45:04;;;;;;;1.30;1.20;;;15.00;99.90;17.60;101002.00;;;;4976573;28;20208;-70
2023/03/21 12:47:35;;;;;;;0.33;0.33;;;15.10;99.90;18.10;101040.00;;;;5033845;28;20201;-71
2023/03/21 12:50:35;;;;;;;1.60;0.97;;;15.30;99.90;18.70;101022.00;;;;5033304;28;20189;-72
2023/03/21 12:53:26;;;;;;;0.93;0.73;;;15.40;99.90;19.20;101046.00;;;;5031278;28;20578;-70
2023/03/21 12:56:26;;;;;;;1.07;1.07;;;15.60;99.90;17.70;101054.00;;;;5023988;28;20188;-70
2023/03/21 12:59:30;;;;;;;0.90;0.80;;;15.40;99.90;18.00;101038.00;;;;5064586;28;20242;-70
2023/03/21 13:02:30;;;;;;;1.87;1.77;;;15.20;99.90;18.30;101022.00;;;;5012192;28;20208;-70
2023/03/21 13:05:27;;;;;;;0.80;0.80;;;14.90;99.90;18.40;101060.00;;;;5024576;28;20201;-71
2023/03/21 13:08:38;;;;;;;0.50;0.50;;;15.50;99.90;18.00;101019.00;;;;5038235;28;20205;-71
2023/03/21 13:11:25;;;;;;;0.33;0.33;;;14.90;99.90;18.20;101005.00;;;;5027728;28;20188;-71
2023/03/21 13:14:00;;;;;;;0.40;0.40;;;15.10;99.90;18.40;101028.00;;;;5029841;28;20230;-71
2023/03/21 13:16:51;;;;;;;1.70;1.60;;;15.10;99.90;18.50;101029.00;;;;5034186;28;20188;-71
2023/03/21 13:20:00;;;;;;;0.20;0.20;;;15.30;99.90;19.00;101015.00;;;;5032836;28;20189;-71
2023/03/21 13:22:28;;;;;;;0.60;0.60;;;15.40;99.90;17.60;101012.00;;;;4996682;28;20268;-71
2023/03/21 13:25:20;;;;;;;0.70;0.70;;;15.20;99.90;18.50;100996.00;;;;5041824;28;20229;-71
2023/03/21 13:28:04;;;;;;;0.20;0.20;;;15.40;99.90;17.60;100985.00;;;;5048953;28;20199;-70
2023/03/21 13:30:35;;;;;;;0.20;0.20;;;14.70;99.90;18.80;101004.00;;;;5047331;28;20186;-71
2023/03/21 13:33:13;;;;;;;0.50;0.50;;;15.20;99.90;17.80;100987.00;;;;5049450;28;20218;-70
2023/03/21 13:35:59;;;;;;;0.93;0.93;;;14.90;99.90;17.90;101006.00;;;;5031988;28;20189;-70
2023/03/21 13:38:29;;;;;;;0.40;0.40;;;15.20;99.90;17.20;100987.00;;;;5048123;28;20514;-71
2023/03/21 13:41:07;;;;;;;0.40;0.40;;;14.80;99.90;16.60;100964.00;;;;5048740;28;20264;-71
2023/03/21 13:43:49;;;;;;;0.40;0.40;;;14.40;99.90;17.70;100975.00;;;;5048808;28;20178;-71
2023/03/21 13:46:44;;;;;;;0.53;0.37;;;14.60;99.90;16.80;100945.00;;;;5047646;28;20187;-69
2023/03/21 13:50:07;;;;;;;2.77;1.07;;;14.50;99.90;16.80;100968.00;;;;5047273;28;20638;-70
2023/03/21 13:52:34;;;;;;;0.77;0.73;;;14.40;99.90;18.20;100982.00;;;;5048729;28;20224;-68
2023/03/21 13:55:25;;;;;;;0.43;0.43;;;14.80;99.90;17.50;100966.00;;;;5031175;28;20180;-72
2023/03/21 13:58:23;;;;;;;0.63;0.63;;;14.70;99.90;17.50;100981.00;;;;5049025;28;20268;-71
2023/03/21 14:01:29;;;;;;;1.97;1.33;;;14.80;99.90;16.10;100955.00;;;;5048746;28;20210;-71
2023/03/21 14:04:19;;;;;;;0.20;0.20;;;14.20;99.90;17.60;100974.00;;;;5048556;28;20225;-75
2023/03/21 14:06:57;;;;;;;1.70;0.97;;;14.40;99.90;16.80;100969.00;;;;5047702;28;20538;-75
2023/03/21 14:09:36;;;;;;;1.30;0.80;;;14.30;99.90;17.30;100986.00;;;;5048115;28;20205;-74
2023/03/21 14:12:07;;;;;;;1.73;1.30;;;14.40;99.90;17.20;100973.00;;;;5032843;28;20281;-67
2023/03/21 14:15:10;;;;;;;1.13;0.70;;;14.40;99.90;17.20;100988.00;;;;5047949;28;20187;-69
2023/03/21 14:18:18;;;;;;;0.53;0.53;;;14.30;99.90;16.20;100964.00;;;;5047896;28;20195;-68
2023/03/21 14:21:12;;;;;;;0.20;0.20;;;14.00;99.90;16.90;100966.00;;;;5027479;28;20196;-69
2023/03/21 14:23:38;;;;;;;0.67;0.67;;;13.90;99.90;16.00;100952.00;;;;5047315;28;20604;-69
2023/03/21 14:26:09;;;;;;;0.30;0.30;;;13.70;99.90;16.10;100908.00;;;;5030489;28;20185;-69
2023/03/21 14:28:51;;;;;;;0.83;0.70;;;13.50;99.90;15.80;100938.00;;;;5031619;28;20213;-70
2023/03/21 14:31:18;;;;;;;0.43;0.33;;;13.50;99.90;17.40;100966.00;;;;5064574;28;20250;-70
2023/03/21 14:34:03;;;;;;;0.20;0.20;;;13.80;99.90;18.00;100984.00;;;;5063211;28;20194;-70
2023/03/21 14:36:43;;;;;;;0.40;0.40;;;14.50;99.90;16.40;100956.00;;;;5031197;28;20185;-69
2023/03/21 14:39:32;;;;;;;2.10;1.87;;;14.00;99.90;16.10;100954.00;;;;5031472;28;20185;-69
2023/03/21 14:42:27;;;;;;;0.20;0.20;;;13.80;99.90;16.50;100953.00;;;;5019238;28;20249;-69
2023/03/21 14:45:23;;;;;;;2.60;1.23;;;13.90;99.90;16.10;100934.00;;;;5013435;28;20275;-70
2023/03/21 14:48:16;;;;;;;1.30;0.97;;;13.70;99.90;16.90;100947.00;;;;5030264;28;20223;-70
2023/03/21 14:50:54;;;;;;;0.20;0.20;;;13.90;99.90;17.50;100962.00;;;;5040991;28;20665;-70
2023/03/21 14:53:40;;;;;;;1.07;1.07;;;14.10;99.90;17.00;100951.00;;;;5039108;28;20559;-69
2023/03/21 14:56:27;;;;;;;0.57;0.57;;;14.00;99.90;16.50;100924.00;;;;5064810;28;20188;-69
2023/03/21 14:59:04;;;;;;;3.13;1.47;;;14.00;99.90;16.00;100917.00;;;;5031642;28;20187;-69
2023/03/21 15:01:38;;;;;;;0.20;0.20;;;13.60;99.90;16.90;100926.00;;;;5030857;28;20199;-69
2023/03/21 15:04:16;;;;;;;1.40;1.30;;;13.70;99.90;16.50;100942.00;;;;5031515;28;20261;-69
2023/03/21 15:07:02;;;;;;;0.23;0.23;;;13.80;99.90;16.70;100936.00;;;;5020602;28;20279;-69
2023/03/21 15:09:33;;;;;;;1.93;0.87;;;13.70;99.90;16.70;100941.00;;;;5014760;28;20195;-69
2023/03/21 15:12:12;;;;;;;0.20;0.20;;;13.80;99.90;17.50;100934.00;;;;5031292;28;20201;-70
2023/03/21 15:14:47;;;;;;;0.30;0.30;;;13.90;99.90;17.70;100917.00;;;;5031807;28;20191;-69
2023/03/21 15:17:14;;;;;;;0.20;0.20;;;14.20;99.90;17.20;100933.00;;;;5031916;28;20184;-69
2023/03/21 15:19:51;;;;;;;0.20;0.20;;;14.10;99.90;17.60;100933.00;;;;5017222;28;20236;-69
2023/03/21 15:22:40;;;;;;;0.40;0.40;;;14.00;99.90;16.80;100929.00;;;;5036105;28;20272;-69
2023/03/21 15:25:22;;;;;;;0.20;0.20;;;14.00;99.90;16.10;100910.00;;;;5034620;28;20189;-69
2023/03/21 15:27:55;;;;;;;0.60;0.60;;;13.70;99.90;16.20;100906.00;;;;5030019;28;20643;-69
2023/03/21 15:30:32;;;;;;;0.77;0.77;;;13.60;99.90;15.90;100907.00;;;;5034196;28;20184;-69
2023/03/21 15:33:11;;;;;;;0.93;0.50;;;13.50;99.90;16.70;100909.00;;;;5023854;28;20694;-70
2023/03/21 15:36:07;;;;;;;0.20;0.20;;;13.70;99.90;17.30;100916.00;;;;5034775;28;20187;-70
2023/03/21 15:38:47;;;;;;;0.27;0.27;;;13.90;99.90;16.80;100916.00;;;;5030940;28;20267;-69
2023/03/21 15:41:29;;;;;;;0.67;0.67;;;13.90;99.90;16.60;100919.00;;;;5022661;28;20190;-69
2023/03/21 15:44:16;;;;;;;1.30;1.20;;;13.70;99.90;15.70;100906.00;;;;5031516;28;20184;-69
2023/03/21 15:46:52;;;;;;;0.97;0.97;;;13.50;99.90;16.60;100914.00;;;;5016981;28;20207;-69
2023/03/21 15:49:40;;;;;;;0.37;0.37;;;13.70;99.90;16.40;100915.00;;;;5051199;28;20226;-69
2023/03/21 15:52:19;;;;;;;0.50;0.50;;;13.70;99.90;16.10;100898.00;;;;5034784;28;20205;-69
2023/03/21 15:54:58;;;;;;;0.57;0.57;;;13.40;99.90;16.40;100907.00;;;;5051475;28;20554;-69
2023/03/21 15:57:36;;;;;;;3.60;3.40;;;13.70;99.90;17.60;100912.00;;;;5050179;28;20218;-69
2023/03/21 16:00:17;;;;;;;1.63;0.70;;;13.90;99.90;16.40;100903.00;;;;5051047;28;20197;-69
2023/03/21 16:02:47;;;;;;;0.20;0.20;;;13.90;99.90;17.60;100905.00;;;;5049192;28;20193;-69
2023/03/21 16:05:30;;;;;;;0.50;0.50;;;14.00;99.90;16.00;100889.00;;;;5047500;28;20186;-69
2023/03/21 16:08:26;;;;;;;0.40;0.40;;;13.60;99.90;16.30;100901.00;;;;5033028;28;20226;-69
2023/03/21 16:10:52;;;;;;;0.27;0.27;;;13.70;99.90;16.90;100916.00;;;;5046370;28;20188;-67
2023/03/21 16:13:18;;;;;;;1.03;1.03;;;13.90;99.90;16.00;100887.00;;;;5048421;28;20262;-67
2023/03/21 16:15:49;;;;;;;1.13;1.10;;;13.70;99.90;15.60;100892.00;;;;5049746;28;20231;-69
2023/03/21 16:18:30;;;;;;;0.57;0.57;;;13.50;99.90;16.10;100881.00;;;;5040021;28;20175;-67
2023/03/21 16:21:02;;;;;;;0.67;0.67;;;13.50;99.90;16.00;100878.00;;;;5014237;28;20193;-67
2023/03/21 16:23:31;;;;;;;0.97;0.57;;;13.60;99.90;16.10;100881.00;;;;5031924;28;20195;-67
2023/03/21 16:26:05;;;;;;;0.30;0.30;;;13.60;99.90;16.70;100857.00;;;;5034362;28;20193;-68
2023/03/21 16:28:34;;;;;;;0.93;0.90;;;13.70;99.90;16.40;100862.00;;;;5033764;28;20628;-67
2023/03/21 16:31:00;;;;;;;0.73;0.73;;;13.80;99.90;15.80;100864.00;;;;5033863;28;20184;-67
2023/03/21 16:33:34;;;;;;;1.47;1.10;;;13.70;99.90;16.30;100866.00;;;;5032883;28;20269;-69
2023/03/21 16:36:06;;;;;;;1.27;0.87;;;13.70;99.90;16.50;100864.00;;;;5032571;28;20706;-67
2023/03/21 16:38:37;;;;;;;2.63;0.67;;;13.70;99.90;16.30;100873.00;;;;5017290;28;20188;-67
2023/03/21 16:41:10;;;;;;;0.20;0.20;;;13.70;99.90;17.00;100884.00;;;;5032377;28;20198;-67
2023/03/21 16:43:42;;;;;;;0.57;0.57;;;13.80;99.90;16.30;100878.00;;;;5034548;28;20266;-67
2023/03/21 16:46:18;;;;;;;0.20;0.20;;;13.80;99.90;16.90;100887.00;;;;5016653;28;20283;-67
2023/03/21 16:48:53;;;;;;;0.30;0.30;;;13.80;99.90;16.80;100901.00;;;;5016790;28;20263;-67
2023/03/21 16:51:30;;;;;;;0.23;0.23;;;14.00;99.90;17.60;100908.00;;;;5017360;28;20190;-67
2023/03/21 16:54:00;;;;;;;1.53;0.83;;;14.20;99.90;16.80;100898.00;;;;5033403;28;20193;-69
2023/03/21 16:56:33;;;;;;;1.67;1.03;;;14.20;99.90;17.50;100906.00;;;;5033385;28;20706;-67
2023/03/21 16:58:59;;;;;;;0.47;0.30;;;14.30;99.90;16.80;100889.00;;;;5032194;28;20211;-69
2023/03/21 17:01:28;;;;;;;0.53;0.53;;;14.10;99.90;17.50;100907.00;;;;5034086;28;20192;-69
2023/03/21 17:03:58;;;;;;;0.20;0.20;;;14.20;99.90;17.50;100879.00;;;;5033034;28;20187;-69
2023/03/21 17:06:27;;;;;;;0.40;0.40;;;14.10;99.90;17.50;100901.00;;;;5016566;28;20177;-71
2023/03/21 17:08:55;;;;;;;0.30;0.30;;;14.30;99.90;17.00;100899.00;;;;5033194;28;20238;-68
2023/03/21 17:11:24;;;;;;;0.53;0.53;;;14.20;99.90;16.20;100894.00;;;;5032895;28;20184;-68
2023/03/21 17:13:59;;;;;;;0.63;0.63;;;13.90;99.90;16.80;100890.00;;;;5033150;28;20189;-69
2023/03/21 17:16:25;;;;;;;0.93;0.43;;;14.00;99.90;16.60;100892.00;;;;5033124;28;20213;-66
2023/03/21 17:19:03;;;;;;;0.20;0.20;;;14.00;99.90;17.30;100896.00;;;;5033232;28;20183;-67
2023/03/21 17:21:29;;;;;;;0.97;0.97;;;14.00;99.90;16.90;100892.00;;;;5032947;28;20187;-67
2023/03/21 17:23:55;;;;;;;0.67;0.67;;;14.00;99.90;17.00;100868.00;;;;5034162;28;20187;-68
2023/03/21 17:26:25;;;;;;;0.20;0.20;;;14.00;99.90;16.50;100882.00;;;;5012747;28;20188;-67
2023/03/21 17:29:00;;;;;;;2.83;2.63;;;13.80;99.90;17.00;100883.00;;;;5047382;28;20176;-68
2023/03/21 17:31:38;;;;;;;0.20;0.20;;;13.90;99.90;16.90;100859.00;;;;5049167;28;20206;-68
2023/03/21 17:34:08;;;;;;;0.20;0.20;;;13.90;99.90;16.90;100866.00;;;;5048296;28;20178;-68
2023/03/21 17:36:45;;;;;;;0.30;0.30;;;13.90;99.90;16.70;100898.00;;;;5049734;28;20260;-68
2023/03/21 17:39:23;;;;;;;0.80;0.40;;;13.90;99.90;16.80;100895.00;;;;5049992;28;20179;-68
2023/03/21 17:41:54;;;;;;;0.40;0.40;;;13.90;99.90;16.70;100896.00;;;;5048209;28;20191;-68
2023/03/21 17:44:29;;;;;;;0.20;0.20;;;13.90;99.90;17.20;100879.00;;;;5048920;28;20187;-68
2023/03/21 17:47:03;;;;;;;0.47;0.47;;;13.90;99.90;16.90;100883.00;;;;5048585;28;20698;-68
2023/03/21 17:49:29;;;;;;;0.40;0.40;;;13.90;99.90;16.30;100880.00;;;;5048941;28;20197;-68
2023/03/21 17:51:55;;;;;;;1.23;1.23;;;13.70;99.90;17.10;100859.00;;;;5050100;28;20244;-67
2023/03/21 17:54:21;;;;;;;0.73;0.73;;;13.90;99.90;17.40;100894.00;;;;5048335;28;20218;-68
2023/03/21 17:56:55;;;;;;;0.93;0.93;;;14.00;99.90;17.00;100899.00;;;;5049190;28;20188;-68
2023/03/21 17:59:44;;;;;;;1.53;1.03;;;14.00;99.90;15.90;100861.00;;;;5046567;28;20345;-67
2023/03/21 18:02:12;;;;;;;0.30;0.30;;;13.80;99.90;16.30;100864.00;;;;5032040;28;20663;-68
2023/03/21 18:05:05;;;;;;;0.20;0.20;;;13.70;99.90;16.60;100883.00;;;;5033338;28;20271;-68
2023/03/21 18:08:24;;;;;;;0.20;0.20;;;13.70;99.90;17.70;100906.00;;;;5032854;28;20239;-68
2023/03/21 18:11:14;;;;;;;0.20;0.20;;;14.00;99.90;18.50;100893.00;;;;5045373;28;20221;-68
2023/03/21 18:14:15;;;;;;;1.27;1.17;;;14.70;99.90;17.30;100912.00;;;;5007551;28;20334;-68
2023/03/21 18:17:23;;;;;;;0.73;0.73;;;14.20;99.90;16.90;100876.00;;;;5028114;28;20242;-67
2023/03/21 18:20:33;;;;;;;0.53;0.53;;;14.10;99.90;16.80;100893.00;;;;5031884;28;20225;-70
2023/03/21 18:23:55;;;;;;;0.20;0.20;;;13.70;99.90;18.40;100913.00;;;;5030862;28;20182;-68
2023/03/21 18:26:28;;;;;;;0.20;0.20;;;14.20;99.90;18.40;100922.00;;;;5022391;28;20200;-68
2023/03/21 18:29:01;;;;;;;0.23;0.23;;;14.50;99.90;18.80;100926.00;;;;5031642;28;20642;-68
2023/03/21 18:31:49;;;;;;;0.20;0.20;;;14.70;99.90;18.70;100924.00;;;;5055252;28;20262;-68
2023/03/21 18:34:51;;;;;;;0.20;0.20;;;14.80;99.90;18.90;100927.00;;;;5027950;28;20262;-68
2023/03/21 18:37:38;;;;;;;0.20;0.20;;;15.00;99.90;18.50;100908.00;;;;5032662;28;20251;-68
2023/03/21 18:40:25;;;;;;;0.20;0.20;;;15.00;99.90;18.20;100903.00;;;;5031765;28;20268;-68
2023/03/21 18:42:51;;;;;;;0.20;0.20;;;14.80;99.90;18.20;100882.00;;;;5047260;28;20254;-68
2023/03/21 18:45:37;;;;;;;0.20;0.20;;;14.50;99.90;18.50;100914.00;;;;5031473;28;20628;-68
2023/03/21 18:48:25;;;;;;;0.20;0.20;;;14.60;99.90;18.40;100912.00;;;;5032100;28;20268;-68
2023/03/21 18:50:51;;;;;;;0.20;0.20;;;14.70;99.90;18.50;100919.00;;;;5014860;28;20190;-68
2023/03/21 18:53:59;;;;;;;0.20;0.20;;;14.70;99.90;18.40;100895.00;;;;5030815;28;20582;-68
2023/03/21 18:56:25;;;;;;;0.20;0.20;;;14.60;99.90;19.00;100909.00;;;;5018908;28;20539;-68
2023/03/21 18:58:54;;;;;;;0.40;0.40;;;14.70;99.90;18.80;100919.00;;;;5051272;28;20180;-68
2023/03/21 19:01:20;;;;;;;0.20;0.20;;;14.80;99.90;17.30;100911.00;;;;5052092;28;20230;-68
2023/03/21 19:03:46;;;;;;;0.20;0.20;;;14.40;99.90;18.30;100918.00;;;;5051448;28;20273;-68
2023/03/21 19:06:12;;;;;;;0.20;0.20;;;14.40;99.90;17.40;100897.00;;;;5052069;28;21071;-68
2023/03/21 19:08:39;;;;;;;0.40;0.23;;;14.10;99.90;17.80;100921.00;;;;5051118;28;20191;-68
2023/03/21 19:11:09;;;;;;;0.20;0.20;;;14.20;99.90;17.30;100925.00;;;;5050884;28;20180;-68
2023/03/21 19:13:40;;;;;;;0.30;0.30;;;14.00;99.90;17.60;100915.00;;;;5052102;28;20209;-68
2023/03/21 19:16:08;;;;;;;0.20;0.20;;;14.00;99.90;17.60;100888.00;;;;5067183;28;20241;-68
2023/03/21 19:18:34;;;;;;;0.20;0.20;;;14.00;99.90;17.70;100895.00;;;;5051345;28;20248;-68
2023/03/21 19:21:30;;;;;;;0.97;0.77;;;14.10;99.90;16.50;100904.00;;;;5052134;28;20183;-68
2023/03/21 19:24:02;;;;;;;2.57;1.30;;;13.80;99.90;16.40;100904.00;;;;5051564;28;20641;-68
2023/03/21 19:26:41;;;;;;;0.20;0.20;;;13.60;99.90;16.50;100918.00;;;;5035234;28;20706;-68
2023/03/21 19:29:29;;;;;;;0.20;0.20;;;13.40;99.90;16.50;100897.00;;;;5048145;28;20185;-68
2023/03/21 19:32:07;;;;;;;0.20;0.20;;;13.20;99.90;16.70;100919.00;;;;5048314;28;20223;-68
2023/03/21 19:34:39;;;;;;;0.47;0.47;;;13.40;99.90;17.10;100912.00;;;;5052230;28;20572;-68
2023/03/21 19:37:07;;;;;;;0.20;0.20;;;13.50;99.90;17.20;100915.00;;;;5047080;28;20680;-68
2023/03/21 19:39:41;;;;;;;0.23;0.23;;;13.50;99.90;17.60;100910.00;;;;5035202;28;20187;-68
2023/03/21 19:42:07;;;;;;;0.20;0.20;;;13.80;99.90;16.70;100903.00;;;;5034041;28;20242;-68
2023/03/21 19:44:34;;;;;;;0.20;0.20;;;13.70;99.90;17.10;100916.00;;;;5034480;28;20584;-68